createdAt,value
2018-03-20T00:00:02.237Z,101018.48
2018-03-20T00:02:31.385Z,101025.53
2018-03-20T00:04:59.896Z,101015.91
2018-03-20T00:07:28.402Z,101010.20
2018-03-20T00:09:57.303Z,101013.50
2018-03-20T00:12:26.212Z,100996.95
2018-03-20T00:14:55.268Z,101001.78
2018-03-20T00:17:24.611Z,100999.31
2018-03-20T00:19:54.073Z,100994.73
2018-03-20T00:22:23.331Z,100983.46
2018-03-20T00:24:51.609Z,100982.69
2018-03-20T00:27:19.898Z,100992.48
2018-03-20T00:29:48.199Z,100980.20
2018-03-20T00:32:16.520Z,100979.25
2018-03-20T00:34:45.584Z,100982.14
2018-03-20T00:37:13.876Z,100977.78
2018-03-20T00:39:42.340Z,100970.53
2018-03-20T00:42:11.091Z,100970.84
2018-03-20T00:44:39.369Z,100965.92
2018-03-20T00:47:08.017Z,100965.03
2018-03-20T00:49:37.245Z,100957.34
2018-03-20T00:52:06.640Z,100950.95
2018-03-20T00:54:36.522Z,100944.62
2018-03-20T00:57:05.755Z,100946.98
2018-03-20T00:59:35.109Z,100934.14
2018-03-20T01:02:03.387Z,100939.06
2018-03-20T01:04:32.487Z,100934.66
2018-03-20T01:07:01.597Z,100926.16
2018-03-20T01:09:30.483Z,100915.29
2018-03-20T01:11:58.784Z,100929.61
2018-03-20T01:14:27.384Z,100938.27
2018-03-20T01:16:58.922Z,100932.26
2018-03-20T01:19:27.350Z,100936.03
2018-03-20T01:21:56.389Z,100924.32
2018-03-20T01:24:25.396Z,100929.70
2018-03-20T01:26:54.105Z,100932.69
2018-03-20T01:29:23.240Z,100925.35
2018-03-20T01:31:51.616Z,100925.97
2018-03-20T01:34:20.088Z,100919.48
2018-03-20T01:36:48.369Z,100926.25
2018-03-20T01:39:16.752Z,100924.17
2018-03-20T01:41:45.024Z,100921.47
2018-03-20T01:44:14.461Z,100913.77
2018-03-20T01:46:43.339Z,100905.67
2018-03-20T01:49:12.224Z,100906.47
2018-03-20T01:51:40.508Z,100911.24
2018-03-20T01:54:08.806Z,100910.44
2018-03-20T01:56:37.668Z,100904.44
2018-03-20T01:59:06.721Z,100903.30
2018-03-20T02:01:36.057Z,100908.48
2018-03-20T02:04:04.342Z,100904.41
2018-03-20T02:06:32.619Z,100906.92
2018-03-20T02:09:01.100Z,100898.44
2018-03-20T02:11:29.456Z,100889.75
2018-03-20T02:13:58.515Z,100892.36
2018-03-20T02:16:27.072Z,100897.63
2018-03-20T02:18:55.920Z,100899.75
2018-03-20T02:21:25.042Z,100903.10
2018-03-20T02:23:53.329Z,100910.38
2018-03-20T02:26:21.908Z,100906.34
2018-03-20T02:28:50.243Z,100901.55
2018-03-20T02:31:20.460Z,100900.70
2018-03-20T02:33:49.524Z,100905.52
2018-03-20T02:36:18.122Z,100901.44
2018-03-20T02:38:46.896Z,100896.26
2018-03-20T02:41:15.192Z,100904.32
2018-03-20T02:43:43.466Z,100903.02
2018-03-20T02:46:12.129Z,100900.28
2018-03-20T02:48:41.139Z,100906.87
2018-03-20T02:51:09.432Z,100907.20
2018-03-20T02:53:37.692Z,100908.74
2018-03-20T02:56:05.985Z,100907.25
2018-03-20T02:58:34.263Z,100910.55
2018-03-20T03:01:02.569Z,100910.52
2018-03-20T03:03:31.604Z,100916.25
2018-03-20T03:05:59.907Z,100918.66
2018-03-20T03:08:28.177Z,100913.78
2018-03-20T03:10:56.549Z,100909.72
2018-03-20T03:13:24.844Z,100918.24
2018-03-20T03:15:53.136Z,100914.81
2018-03-20T03:18:21.628Z,100918.59
2018-03-20T03:20:49.943Z,100929.23
2018-03-20T03:23:19.030Z,100926.44
2018-03-20T03:25:47.289Z,100931.02
2018-03-20T03:28:16.683Z,100937.36
2018-03-20T03:30:44.948Z,100928.26
2018-03-20T03:33:13.261Z,100932.94
2018-03-20T03:35:42.301Z,100942.66
2018-03-20T03:38:10.607Z,100936.20
2018-03-20T03:40:39.393Z,100938.59
2018-03-20T03:43:07.720Z,100937.30
2018-03-20T03:45:36.325Z,100957.77
2018-03-20T03:48:04.691Z,100960.00
2018-03-20T03:50:32.956Z,100963.94
2018-03-20T03:53:01.221Z,100968.72
2018-03-20T03:55:30.333Z,100976.36
2018-03-20T03:57:58.604Z,100971.50
2018-03-20T04:00:27.721Z,100978.64
2018-03-20T04:02:57.390Z,100980.81
2018-03-20T04:05:26.285Z,101010.73
2018-03-20T04:07:55.387Z,100999.64
2018-03-20T04:10:25.900Z,101019.67
2018-03-20T04:12:54.226Z,101000.92
2018-03-20T04:15:22.636Z,101008.73
2018-03-20T04:17:50.911Z,101014.37
2018-03-20T04:20:19.185Z,101006.98
2018-03-20T04:22:47.695Z,101018.53
2018-03-20T04:25:16.043Z,101013.56
2018-03-20T04:27:44.910Z,101026.06
2018-03-20T04:30:13.453Z,101021.09
2018-03-20T04:32:41.712Z,101017.55
2018-03-20T04:35:10.269Z,101032.11
2018-03-20T04:37:38.661Z,101035.48
2018-03-20T04:40:06.927Z,101039.12
2018-03-20T04:42:35.216Z,101051.27
2018-03-20T04:45:03.493Z,101050.15
2018-03-20T04:47:31.769Z,101057.63
2018-03-20T04:50:00.139Z,101058.05
2018-03-20T04:52:28.410Z,101055.07
2018-03-20T04:54:57.491Z,101069.66
2018-03-20T04:57:25.798Z,101071.31
2018-03-20T04:59:54.973Z,101071.64
2018-03-20T05:02:23.273Z,101079.88
2018-03-20T05:04:52.088Z,101072.73
2018-03-20T05:07:20.534Z,101080.02
2018-03-20T05:09:48.803Z,101085.84
2018-03-20T05:12:17.068Z,101088.50
2018-03-20T05:14:45.410Z,101096.34
2018-03-20T05:17:13.672Z,101097.23
2018-03-20T05:19:47.541Z,101110.49
2018-03-20T05:22:21.308Z,101110.41
2018-03-20T05:24:50.156Z,101119.34
2018-03-20T05:27:18.942Z,101115.52
2018-03-20T05:29:47.199Z,101124.55
2018-03-20T05:32:15.770Z,101123.80
2018-03-20T05:34:45.003Z,101137.18
2018-03-20T05:37:14.034Z,101131.94
2018-03-20T05:39:42.325Z,101138.56
2018-03-20T05:42:11.400Z,101153.13
2018-03-20T05:44:40.085Z,101156.02
2018-03-20T05:47:11.619Z,101158.39
2018-03-20T05:52:44.022Z,101160.52
2018-03-20T05:55:12.300Z,101172.59
2018-03-20T05:57:40.585Z,101191.89
2018-03-20T06:00:08.852Z,101176.14
2018-03-20T06:02:37.119Z,101184.84
2018-03-20T06:05:05.502Z,101199.52
2018-03-20T06:07:33.769Z,101197.68
2018-03-20T06:10:02.184Z,101193.36
2018-03-20T06:12:30.667Z,101213.08
2018-03-20T06:14:59.628Z,101214.53
2018-03-20T06:17:27.894Z,101226.11
2018-03-20T06:19:56.217Z,101230.14
2018-03-20T06:22:24.599Z,101236.63
2018-03-20T06:24:52.950Z,101234.51
2018-03-20T06:27:21.213Z,101243.84
2018-03-20T06:29:49.505Z,101255.05
2018-03-20T06:32:17.892Z,101258.14
2018-03-20T06:34:46.372Z,101260.03
2018-03-20T06:37:14.745Z,101268.05
2018-03-20T06:39:43.377Z,101267.23
2018-03-20T06:42:11.688Z,101281.00
2018-03-20T06:44:40.827Z,101284.58
2018-03-20T06:47:09.821Z,101306.38
2018-03-20T06:49:38.115Z,101288.79
2018-03-20T06:52:06.500Z,101295.58
2018-03-20T06:54:35.452Z,101311.28
2018-03-20T06:57:03.829Z,101304.19
2018-03-20T06:59:32.138Z,101308.52
2018-03-20T07:02:00.403Z,101316.27
2018-03-20T07:04:29.483Z,101325.77
2018-03-20T07:06:57.743Z,101333.05
2018-03-20T07:09:26.148Z,101341.13
2018-03-20T07:11:54.421Z,101338.84
2018-03-20T07:14:22.718Z,101336.83
2018-03-20T07:16:51.195Z,101348.63
2018-03-20T07:19:19.537Z,101347.90
2018-03-20T07:21:48.557Z,101345.91
2018-03-20T07:24:16.936Z,101342.55
2018-03-20T07:26:45.223Z,101358.63
2018-03-20T07:29:14.656Z,101358.94
2018-03-20T07:31:43.646Z,101351.05
2018-03-20T07:34:12.908Z,101363.20
2018-03-20T07:36:41.188Z,101368.33
2018-03-20T07:39:09.564Z,101365.41
2018-03-20T07:41:37.864Z,101368.91
2018-03-20T07:44:06.220Z,101371.91
2018-03-20T07:46:34.477Z,101373.02
2018-03-20T07:49:03.533Z,101379.05
2018-03-20T07:51:32.281Z,101374.74
2018-03-20T07:54:00.578Z,101392.44
2018-03-20T07:56:29.266Z,101410.19
2018-03-20T07:58:57.548Z,101405.20
2018-03-20T08:01:25.868Z,101415.91
2018-03-20T08:03:55.028Z,101407.78
2018-03-20T08:06:23.304Z,101414.95
2018-03-20T08:08:51.697Z,101423.45
2018-03-20T08:11:20.049Z,101421.70
2018-03-20T08:13:48.376Z,101421.95
2018-03-20T08:16:16.726Z,101438.42
2018-03-20T08:18:45.801Z,101439.78
2018-03-20T08:21:14.056Z,101441.69
2018-03-20T08:23:43.276Z,101436.38
2018-03-20T08:26:11.549Z,101450.94
2018-03-20T08:28:39.830Z,101459.38
2018-03-20T08:31:08.255Z,101455.48
2018-03-20T08:33:36.591Z,101456.48
2018-03-20T08:36:04.877Z,101464.83
2018-03-20T08:38:33.144Z,101475.97
2018-03-20T08:41:01.414Z,101470.53
2018-03-20T08:43:30.124Z,101470.68
2018-03-20T08:45:58.404Z,101473.78
2018-03-20T08:48:27.569Z,101478.70
2018-03-20T08:50:56.811Z,101498.86
2018-03-20T08:53:25.080Z,101504.80
2018-03-20T08:55:54.175Z,101505.84
2018-03-20T08:58:22.536Z,101506.66
2018-03-20T09:00:50.934Z,101554.38
2018-03-20T09:03:19.198Z,101518.05
2018-03-20T09:05:47.461Z,101520.38
2018-03-20T09:08:15.758Z,101538.35
2018-03-20T09:10:44.029Z,101530.06
2018-03-20T09:13:13.247Z,101538.27
2018-03-20T09:15:41.735Z,101537.52
2018-03-20T09:18:09.996Z,101540.22
2018-03-20T09:20:38.378Z,101548.72
2018-03-20T09:23:06.661Z,101552.37
2018-03-20T09:25:35.303Z,101559.21
2018-03-20T09:28:04.337Z,101556.64
2018-03-20T09:30:33.125Z,101565.38
2018-03-20T09:33:01.408Z,101572.16
2018-03-20T09:35:29.731Z,101581.75
2018-03-20T09:37:57.988Z,101592.97
2018-03-20T09:40:26.772Z,101613.91
2018-03-20T09:42:55.135Z,101610.44
2018-03-20T09:45:23.399Z,101622.41
2018-03-20T09:47:51.752Z,101614.62
2018-03-20T09:50:20.888Z,101615.29
2018-03-20T09:52:49.181Z,101632.99
2018-03-20T09:55:17.552Z,101609.41
2018-03-20T09:57:45.808Z,101631.17
2018-03-20T10:00:14.115Z,101648.09
2018-03-20T10:02:42.411Z,101635.04
2018-03-20T10:05:10.704Z,101653.00
2018-03-20T10:07:39.747Z,101650.66
2018-03-20T10:10:09.460Z,101660.78
2018-03-20T10:12:37.755Z,101673.80
2018-03-20T10:15:06.149Z,101666.39
2018-03-20T10:17:34.451Z,101680.55
2018-03-20T10:20:04.236Z,101672.38
2018-03-20T10:22:32.930Z,101706.73
2018-03-20T10:25:01.998Z,101695.99
2018-03-20T10:27:30.807Z,101699.41
2018-03-20T10:29:59.088Z,101695.42
2018-03-20T10:32:27.388Z,101687.58
2018-03-20T10:34:56.356Z,101694.56
2018-03-20T10:37:25.156Z,101695.59
2018-03-20T10:39:53.488Z,101708.61
2018-03-20T10:42:21.747Z,101707.99
2018-03-20T10:44:50.040Z,101703.14
2018-03-20T10:47:18.432Z,101711.70
2018-03-20T10:49:47.549Z,101720.63
2018-03-20T10:52:15.815Z,101714.60
2018-03-20T10:54:44.288Z,101738.27
2018-03-20T10:57:12.569Z,101745.17
2018-03-20T10:59:40.829Z,101727.63
2018-03-20T11:02:14.578Z,101736.42
2018-03-20T11:04:43.077Z,101741.28
2018-03-20T11:07:11.960Z,101741.05
2018-03-20T11:09:40.248Z,101753.76
2018-03-20T11:12:08.516Z,101756.48
2018-03-20T11:14:36.819Z,101752.72
2018-03-20T11:17:06.106Z,101786.34
2018-03-20T11:19:35.886Z,101765.50
2018-03-20T11:22:04.184Z,101781.38
2018-03-20T11:24:33.289Z,101776.25
2018-03-20T11:27:02.308Z,101783.16
2018-03-20T11:29:31.340Z,101786.61
2018-03-20T11:32:00.528Z,101781.66
2018-03-20T11:34:28.815Z,101786.47
2018-03-20T11:36:57.196Z,101796.58
2018-03-20T11:39:25.591Z,101793.09
2018-03-20T11:41:54.062Z,101785.17
2018-03-20T11:44:22.346Z,101784.39
2018-03-20T11:46:50.668Z,101785.21
2018-03-20T11:49:19.701Z,101793.05
2018-03-20T11:51:47.973Z,101799.05
2018-03-20T11:54:16.274Z,101803.80
2018-03-20T11:56:44.548Z,101812.94
2018-03-20T11:59:12.960Z,101812.20
2018-03-20T12:01:41.248Z,101816.83
2018-03-20T12:04:09.928Z,101833.59
2018-03-20T12:06:38.613Z,101813.09
2018-03-20T12:12:33.527Z,101831.27
2018-03-20T12:15:01.992Z,101818.48
2018-03-20T12:17:31.712Z,101837.98
2018-03-20T12:20:00.565Z,101828.76
2018-03-20T12:22:28.829Z,101831.86
2018-03-20T12:24:59.188Z,101839.75
2018-03-20T12:27:27.464Z,101839.88
2018-03-20T12:29:56.644Z,101842.16
2018-03-20T12:32:25.777Z,101842.12
2018-03-20T12:34:54.193Z,101842.24
2018-03-20T12:37:24.489Z,101850.31
2018-03-20T12:39:52.836Z,101851.11
2018-03-20T12:42:22.401Z,101855.83
2018-03-20T12:44:51.452Z,101853.10
2018-03-20T12:47:21.100Z,101850.56
2018-03-20T12:49:50.109Z,101858.41
2018-03-20T12:52:20.529Z,101854.19
2018-03-20T12:54:49.627Z,101859.81
2018-03-20T12:57:21.018Z,101850.66
2018-03-20T12:59:51.572Z,101873.36
2018-03-20T13:02:20.767Z,101872.69
2018-03-20T13:04:49.691Z,101875.81
2018-03-20T13:07:19.157Z,101876.77
2018-03-20T13:09:48.245Z,101875.50
2018-03-20T13:12:16.885Z,101880.47
2018-03-20T13:14:45.956Z,101878.70
2018-03-20T13:17:14.283Z,101877.87
2018-03-20T13:19:44.096Z,101889.17
2018-03-20T13:22:12.406Z,101889.49
2018-03-20T13:24:40.792Z,101894.73
2018-03-20T13:27:09.289Z,101901.70
2018-03-20T13:29:37.959Z,101903.75
2018-03-20T13:32:06.251Z,101914.13
2018-03-20T13:34:34.545Z,101895.13
2018-03-20T13:37:02.910Z,101891.16
2018-03-20T13:39:31.211Z,101893.44
2018-03-20T13:42:00.313Z,101891.21
2018-03-20T13:44:29.384Z,101902.15
2018-03-20T13:46:58.267Z,101908.66
2018-03-20T13:49:26.663Z,101900.64
2018-03-20T13:51:56.097Z,101905.45
2018-03-20T13:54:25.184Z,101901.28
2018-03-20T13:56:53.813Z,101909.27
2018-03-20T13:59:22.092Z,101904.58
2018-03-20T14:01:50.487Z,101912.81
2018-03-20T14:04:19.332Z,101919.45
2018-03-20T14:06:49.404Z,101913.48
2018-03-20T14:09:17.761Z,101926.02
2018-03-20T14:11:46.148Z,101914.44
2018-03-20T14:14:14.427Z,101934.80
2018-03-20T14:16:43.953Z,101925.09
2018-03-20T14:19:12.620Z,101934.98
2018-03-20T14:21:41.543Z,101932.33
2018-03-20T14:24:11.053Z,101937.36
2018-03-20T14:26:39.966Z,101936.71
2018-03-20T14:29:09.096Z,101944.20
2018-03-20T14:31:37.604Z,101954.66
2018-03-20T14:34:06.492Z,101958.75
2018-03-20T14:36:34.909Z,101964.72
2018-03-20T14:39:03.180Z,101951.98
2018-03-20T14:41:31.609Z,101953.67
2018-03-20T14:44:00.693Z,101960.22
2018-03-20T14:46:28.956Z,101957.28
2018-03-20T14:48:58.044Z,101963.83
2018-03-20T14:51:26.335Z,101960.45
2018-03-20T14:53:56.305Z,101984.27
2018-03-20T14:56:25.406Z,101972.06
2018-03-20T14:58:53.686Z,101975.22
2018-03-20T15:01:22.862Z,101970.95
2018-03-20T15:03:51.970Z,101985.27
2018-03-20T15:06:22.788Z,101985.08
2018-03-20T15:08:51.732Z,101998.75
2018-03-20T15:11:20.088Z,101995.34
2018-03-20T15:13:48.450Z,101992.13
2018-03-20T15:16:17.749Z,102001.50
2018-03-20T15:18:46.145Z,101994.88
2018-03-20T15:21:15.233Z,102007.00
2018-03-20T15:23:44.962Z,102005.30
2018-03-20T15:26:13.300Z,102002.91
2018-03-20T15:28:43.184Z,102027.83
2018-03-20T15:31:12.213Z,102021.61
2018-03-20T15:33:41.442Z,102010.27
2018-03-20T15:36:10.181Z,102020.09
2018-03-20T15:38:38.460Z,102031.23
2018-03-20T15:41:07.589Z,102029.46
2018-03-20T15:43:35.888Z,102033.04
2018-03-20T15:46:05.075Z,102032.31
2018-03-20T15:48:33.830Z,102030.44
2018-03-20T15:51:04.332Z,102048.24
2018-03-20T15:53:32.638Z,102045.02
2018-03-20T15:56:00.902Z,102050.59
2018-03-20T15:58:29.957Z,102051.03
2018-03-20T16:00:58.248Z,102069.48
2018-03-20T16:03:27.573Z,102074.13
2018-03-20T16:05:56.815Z,102071.97
2018-03-20T16:08:25.079Z,102074.67
2018-03-20T16:10:53.341Z,102084.88
2018-03-20T16:13:21.663Z,102089.48
2018-03-20T16:15:49.929Z,102081.55
2018-03-20T16:18:18.400Z,102087.31
2018-03-20T16:20:46.698Z,102086.55
2018-03-20T16:23:15.913Z,102095.66
2018-03-20T16:25:44.860Z,102103.52
2018-03-20T16:28:13.141Z,102103.70
2018-03-20T16:30:41.443Z,102100.64
2018-03-20T16:33:11.100Z,102111.72
2018-03-20T16:35:40.152Z,102111.09
2018-03-20T16:38:08.527Z,102119.56
2018-03-20T16:40:36.823Z,102127.47
2018-03-20T16:43:05.107Z,102130.11
2018-03-20T16:45:33.455Z,102132.92
2018-03-20T16:48:01.856Z,102137.82
2018-03-20T16:50:30.128Z,102137.44
2018-03-20T16:52:58.592Z,102139.20
2018-03-20T16:55:26.985Z,102146.79
2018-03-20T16:57:55.780Z,102155.77
2018-03-20T17:00:24.679Z,102149.27
2018-03-20T17:02:54.019Z,102154.14
2018-03-20T17:05:23.072Z,102151.73
2018-03-20T17:07:51.436Z,102161.00
2018-03-20T17:10:20.736Z,102168.34
2018-03-20T17:12:49.679Z,102168.16
2018-03-20T17:15:18.021Z,102169.30
2018-03-20T17:17:46.352Z,102175.00
2018-03-20T17:20:15.388Z,102182.87
2018-03-20T17:22:44.381Z,102181.05
2018-03-20T17:25:12.587Z,102188.97
2018-03-20T17:27:40.880Z,102182.17
2018-03-20T17:30:10.283Z,102188.94
2018-03-20T17:32:39.327Z,102188.84
2018-03-20T17:35:07.788Z,102192.59
2018-03-20T17:37:36.112Z,102194.42
2018-03-20T17:40:04.403Z,102199.28
2018-03-20T17:42:32.769Z,102198.22
2018-03-20T17:45:01.792Z,102203.93
2018-03-20T17:47:30.119Z,102206.16
2018-03-20T17:49:58.497Z,102208.22
2018-03-20T17:52:26.840Z,102210.94
2018-03-20T17:54:55.931Z,102213.95
2018-03-20T17:57:24.986Z,102218.62
2018-03-20T17:59:53.260Z,102218.58
2018-03-20T18:02:22.040Z,102225.29
2018-03-20T18:04:50.685Z,102227.56
2018-03-20T18:07:21.123Z,102225.97
2018-03-20T18:09:49.399Z,102223.31
2018-03-20T18:12:18.440Z,102228.38
2018-03-20T18:14:46.733Z,102225.30
2018-03-20T18:17:15.720Z,102233.98
2018-03-20T18:19:44.074Z,102232.45
2018-03-20T18:22:12.468Z,102241.62
2018-03-20T18:24:40.743Z,102239.91
2018-03-20T18:27:09.133Z,102241.56
2018-03-20T18:29:37.519Z,102245.98
2018-03-20T18:32:05.776Z,102242.06
2018-03-20T18:34:34.187Z,102250.70
2018-03-20T18:37:02.724Z,102251.96
2018-03-20T18:39:31.614Z,102259.51
2018-03-20T18:41:59.920Z,102259.46
2018-03-20T18:44:28.224Z,102256.49
2018-03-20T18:46:56.495Z,102263.35
2018-03-20T18:49:25.078Z,102263.50
2018-03-20T18:51:53.889Z,102266.11
2018-03-20T18:54:23.639Z,102275.23
2018-03-20T18:56:52.651Z,102271.45
2018-03-20T18:59:20.969Z,102275.66
2018-03-20T19:01:50.007Z,102283.45
2018-03-20T19:04:18.266Z,102282.22
2018-03-20T19:06:47.342Z,102291.59
2018-03-20T19:09:15.746Z,102295.61
2018-03-20T19:11:44.013Z,102295.41
2018-03-20T19:14:13.074Z,102298.09
2018-03-20T19:16:41.392Z,102293.98
2018-03-20T19:19:10.754Z,102292.05
2018-03-20T19:21:39.017Z,102298.55
2018-03-20T19:24:08.260Z,102300.13
2018-03-20T19:26:38.567Z,102300.34
2018-03-20T19:29:07.159Z,102311.37
2018-03-20T19:31:35.458Z,102320.36
2018-03-20T19:34:04.501Z,102324.89
2018-03-20T19:36:32.798Z,102327.43
2018-03-20T19:39:03.396Z,102338.78
2018-03-20T19:41:31.793Z,102336.62
2018-03-20T19:44:00.333Z,102337.31
2018-03-20T19:46:28.653Z,102343.58
2018-03-20T19:48:56.939Z,102344.87
2018-03-20T19:51:25.417Z,102340.56
2018-03-20T19:53:54.623Z,102343.36
2018-03-20T19:56:23.821Z,102348.00
2018-03-20T19:58:53.627Z,102346.24
2018-03-20T20:01:21.910Z,102352.67
2018-03-20T20:03:50.260Z,102357.13
2018-03-20T20:06:19.560Z,102353.79
2018-03-20T20:08:48.721Z,102356.23
2018-03-20T20:11:17.757Z,102361.70
2018-03-20T20:13:47.611Z,102365.02
2018-03-20T20:16:16.069Z,102363.41
2018-03-20T20:18:44.461Z,102362.23
2018-03-20T20:21:13.211Z,102367.60
2018-03-20T20:23:43.098Z,102362.69
2018-03-20T20:26:13.328Z,102372.38
2018-03-20T20:28:42.405Z,102376.48
2018-03-20T20:31:12.203Z,102383.91
2018-03-20T20:33:40.515Z,102384.23
2018-03-20T20:36:09.572Z,102382.08
2018-03-20T20:38:38.857Z,102389.38
2018-03-20T20:41:07.187Z,102385.04
2018-03-20T20:43:36.241Z,102388.19
2018-03-20T20:46:04.518Z,102390.62
2018-03-20T20:48:33.163Z,102392.16
2018-03-20T20:51:02.170Z,102394.44
2018-03-20T20:53:31.545Z,102398.12
2018-03-20T20:56:01.656Z,102398.85
2018-03-20T20:58:30.852Z,102403.52
2018-03-20T21:00:59.933Z,102394.20
2018-03-20T21:03:28.248Z,102397.23
2018-03-20T21:05:57.508Z,102398.00
2018-03-20T21:08:26.395Z,102402.81
2018-03-20T21:10:54.710Z,102402.08
2018-03-20T21:13:23.779Z,102407.03
2018-03-20T21:15:52.825Z,102408.36
2018-03-20T21:18:21.900Z,102403.91
2018-03-20T21:20:51.002Z,102405.49
2018-03-20T21:23:20.048Z,102408.06
2018-03-20T21:25:48.523Z,102408.64
2018-03-20T21:28:16.833Z,102420.02
2018-03-20T21:30:45.222Z,102412.28
2018-03-20T21:33:13.648Z,102416.63
2018-03-20T21:35:41.936Z,102416.45
2018-03-20T21:38:10.583Z,102413.64
2018-03-20T21:40:39.722Z,102419.19
2018-03-20T21:43:08.890Z,102419.73
2018-03-20T21:45:37.191Z,102420.97
2018-03-20T21:48:05.690Z,102422.63
2018-03-20T21:50:34.685Z,102420.72
2018-03-20T21:53:02.995Z,102418.67
2018-03-20T21:55:31.905Z,102419.78
2018-03-20T21:58:01.889Z,102420.11
2018-03-20T22:00:31.108Z,102416.48
2018-03-20T22:02:59.758Z,102423.70
2018-03-20T22:05:28.876Z,102421.52
2018-03-20T22:07:57.280Z,102423.02
2018-03-20T22:10:26.450Z,102421.73
2018-03-20T22:12:55.900Z,102422.84
2018-03-20T22:15:25.737Z,102420.32
2018-03-20T22:17:55.296Z,102423.38
2018-03-20T22:20:25.151Z,102422.59
2018-03-20T22:22:55.020Z,102430.94
2018-03-20T22:25:24.063Z,102429.20
2018-03-20T22:27:52.388Z,102430.48
2018-03-20T22:30:21.944Z,102431.31
2018-03-20T22:32:50.903Z,102435.56
2018-03-20T22:35:19.184Z,102442.05
2018-03-20T22:37:49.595Z,102448.52
2018-03-20T22:40:17.907Z,102450.78
2018-03-20T22:42:48.219Z,102442.11
2018-03-20T22:45:17.281Z,102446.50
2018-03-20T22:47:46.571Z,102445.62
2018-03-20T22:50:16.683Z,102445.88
2018-03-20T22:52:46.035Z,102450.09
2018-03-20T22:55:17.321Z,102453.39
2018-03-20T22:57:46.738Z,102451.81
2018-03-20T23:00:29.316Z,102450.52
2018-03-20T23:02:58.384Z,102452.53
2018-03-20T23:05:27.022Z,102459.37
2018-03-20T23:07:55.534Z,102466.41
2018-03-20T23:10:24.996Z,102465.63
2018-03-20T23:12:53.308Z,102466.38
2018-03-20T23:15:21.660Z,102464.34
2018-03-20T23:17:51.115Z,102464.22
2018-03-20T23:20:20.144Z,102467.64
2018-03-20T23:22:49.252Z,102469.11
2018-03-20T23:25:18.221Z,102467.20
2018-03-20T23:27:46.497Z,102468.59
2018-03-20T23:30:15.633Z,102471.73
2018-03-20T23:32:44.287Z,102466.84
2018-03-20T23:35:12.599Z,102471.11
2018-03-20T23:37:40.975Z,102469.55
2018-03-20T23:40:09.665Z,102468.68
2018-03-20T23:42:40.403Z,102469.36
2018-03-20T23:45:08.736Z,102474.78
2018-03-20T23:47:37.427Z,102466.31
2018-03-20T23:50:06.449Z,102471.45
2018-03-20T23:52:34.765Z,102479.22
2018-03-20T23:55:03.061Z,102484.32
2018-03-20T23:57:31.441Z,102478.09
